Aérodrome :
LOGIN :

S'inscrire | Disclaimer

   EN    FR    IT 

 










Légende :    VFR   VFR Marginal   IFR   IFR Intensif   IFR Très Intensif
Visi : 
Plafond : 
>= 8 km
>= 3000ft
5 à 8 km
1000 à 3000 ft
1500m à 5 km
500 à 1000 ft
800 à 1500m
200 à 500 ft
< 800m
< 200 ft
Symboles :   Orages  Brouillard  Fortes neiges  Fortes précipitations  Vent > 20 kt
SIGMETs :   Divers  Orages  Givrage  Turbulence  Onde Orograph.  Cendres Volcan.






- Altitude de l'aérodrome : 194 ft
- Code IATA : ANE


LFJR - Angers Marcé

DERNIER METAR :
  • 270100Z AUTO 19012KT 8000 -RA BKN009/// OVC014/// ///TCU 10/09 Q1013

METARs EXPIRÉS :
  • 270030Z AUTO 19012KT 9999 -RA OVC013/// ///CB 10/09 Q1013
  • 270000Z AUTO 19011KT 9999 OVC012/// ///TCU 10/09 Q1013
  • 262330Z AUTO 19010KT 9999 BKN010/// OVC014/// ///TCU 10/09 Q1014
  • 262300Z AUTO 19011KT 9999 -RA BKN011/// OVC017/// ///TCU 10/09 Q1014
  • 262230Z AUTO 19013KT 9999 DZ OVC012/// ///TCU 10/09 Q1014

Prévision TAF périmée.



MET'MAP, la Météo Aéronautique d'un coup d'oeil ! - Copyright ORBIFLY Décembre 2007 - Disclaimer

ORBIFLY MET'MAP TEAM :

Programmation & Développement : Alexandra Zaïnal
Sur une idée originale de : Baudouin d'Aumeries
Assistance à la programmation : Marc-Olivier Méhu
Soutien technique & logistique : Manuel Goepfert

Contact : metmap@orbifly.com




SOURCES & CREDITS :

   NOAA